sensor_id;sensor_type;location;lat;lon;timestamp;temperature;humidity
22071;DHT22;11200;51.488;6.668;2023-06-10T00:01:24;22.70;99.90
22071;DHT22;11200;51.488;6.668;2023-06-10T00:03:50;22.70;99.90
22071;DHT22;11200;51.488;6.668;2023-06-10T00:06:17;22.60;99.90
22071;DHT22;11200;51.488;6.668;2023-06-10T00:08:43;22.60;99.90
22071;DHT22;11200;51.488;6.668;2023-06-10T00:11:08;22.60;99.90
22071;DHT22;11200;51.488;6.668;2023-06-10T00:13:36;22.50;99.90
22071;DHT22;11200;51.488;6.668;2023-06-10T00:16:04;22.50;99.90
22071;DHT22;11200;51.488;6.668;2023-06-10T00:18:29;22.40;99.90
22071;DHT22;11200;51.488;6.668;2023-06-10T00:20:57;22.40;99.90
22071;DHT22;11200;51.488;6.668;2023-06-10T00:23:28;22.40;99.90
22071;DHT22;11200;51.488;6.668;2023-06-10T00:25:57;22.30;99.90
22071;DHT22;11200;51.488;6.668;2023-06-10T00:28:23;22.30;99.90
22071;DHT22;11200;51.488;6.668;2023-06-10T00:30:50;22.30;99.90
22071;DHT22;11200;51.488;6.668;2023-06-10T00:33:15;22.30;99.90
22071;DHT22;11200;51.488;6.668;2023-06-10T00:35:41;22.20;99.90
22071;DHT22;11200;51.488;6.668;2023-06-10T00:38:06;22.20;99.90
22071;DHT22;11200;51.488;6.668;2023-06-10T00:40:38;22.20;99.90
22071;DHT22;11200;51.488;6.668;2023-06-10T00:43:04;22.10;99.90
22071;DHT22;11200;51.488;6.668;2023-06-10T00:45:29;22.10;99.90
22071;DHT22;11200;51.488;6.668;2023-06-10T00:47:55;22.10;99.90
22071;DHT22;11200;51.488;6.668;2023-06-10T00:50:21;22.00;99.90
22071;DHT22;11200;51.488;6.668;2023-06-10T00:52:47;22.00;99.90
22071;DHT22;11200;51.488;6.668;2023-06-10T00:55:16;22.00;99.90
22071;DHT22;11200;51.488;6.668;2023-06-10T00:57:42;22.00;99.90
22071;DHT22;11200;51.488;6.668;2023-06-10T01:00:10;21.90;99.90
22071;DHT22;11200;51.488;6.668;2023-06-10T01:02:36;21.90;99.90
22071;DHT22;11200;51.488;6.668;2023-06-10T01:05:02;21.90;99.90
22071;DHT22;11200;51.488;6.668;2023-06-10T01:07:37;21.90;99.90
22071;DHT22;11200;51.488;6.668;2023-06-10T01:10:57;21.90;99.90
22071;DHT22;11200;51.488;6.668;2023-06-10T01:12:59;21.80;99.90
22071;DHT22;11200;51.488;6.668;2023-06-10T01:15:31;21.80;99.90
22071;DHT22;11200;51.488;6.668;2023-06-10T01:18:02;21.70;99.90
22071;DHT22;11200;51.488;6.668;2023-06-10T01:20:28;21.70;99.90
22071;DHT22;11200;51.488;6.668;2023-06-10T01:22:55;21.70;99.90
22071;DHT22;11200;51.488;6.668;2023-06-10T01:25:22;21.70;99.90
22071;DHT22;11200;51.488;6.668;2023-06-10T01:27:54;21.60;99.90
22071;DHT22;11200;51.488;6.668;2023-06-10T01:30:23;21.60;99.90
22071;DHT22;11200;51.488;6.668;2023-06-10T01:32:52;21.60;99.90
22071;DHT22;11200;51.488;6.668;2023-06-10T01:35:20;21.60;99.90
22071;DHT22;11200;51.488;6.668;2023-06-10T01:37:47;21.50;99.90
22071;DHT22;11200;51.488;6.668;2023-06-10T01:40:14;21.50;99.90
22071;DHT22;11200;51.488;6.668;2023-06-10T01:42:40;21.50;99.90
22071;DHT22;11200;51.488;6.668;2023-06-10T01:45:06;21.40;99.90
22071;DHT22;11200;51.488;6.668;2023-06-10T01:47:32;21.40;99.90
22071;DHT22;11200;51.488;6.668;2023-06-10T01:49:58;21.40;99.90
22071;DHT22;11200;51.488;6.668;2023-06-10T01:52:23;21.30;99.90
22071;DHT22;11200;51.488;6.668;2023-06-10T01:54:49;21.30;99.90
22071;DHT22;11200;51.488;6.668;2023-06-10T01:57:14;21.30;99.90
22071;DHT22;11200;51.488;6.668;2023-06-10T01:59:41;21.20;99.90
22071;DHT22;11200;51.488;6.668;2023-06-10T02:02:09;21.20;99.90
22071;DHT22;11200;51.488;6.668;2023-06-10T02:04:35;21.20;99.90
22071;DHT22;11200;51.488;6.668;2023-06-10T02:07:00;21.10;99.90
22071;DHT22;11200;51.488;6.668;2023-06-10T02:09:29;21.10;99.90
22071;DHT22;11200;51.488;6.668;2023-06-10T02:11:55;21.10;99.90
22071;DHT22;11200;51.488;6.668;2023-06-10T02:14:21;21.10;99.90
22071;DHT22;11200;51.488;6.668;2023-06-10T02:16:46;21.00;99.90
22071;DHT22;11200;51.488;6.668;2023-06-10T02:19:13;21.00;99.90
22071;DHT22;11200;51.488;6.668;2023-06-10T02:21:39;21.00;99.90
22071;DHT22;11200;51.488;6.668;2023-06-10T02:24:05;20.90;99.90
22071;DHT22;11200;51.488;6.668;2023-06-10T02:26:31;20.90;99.90
22071;DHT22;11200;51.488;6.668;2023-06-10T02:28:57;20.90;99.90
22071;DHT22;11200;51.488;6.668;2023-06-10T02:31:22;20.90;99.90
22071;DHT22;11200;51.488;6.668;2023-06-10T02:33:49;20.80;99.90
22071;DHT22;11200;51.488;6.668;2023-06-10T02:36:16;20.80;99.90
22071;DHT22;11200;51.488;6.668;2023-06-10T02:38:42;20.70;99.90
22071;DHT22;11200;51.488;6.668;2023-06-10T02:41:08;20.70;99.90
22071;DHT22;11200;51.488;6.668;2023-06-10T02:43:33;20.70;99.90
22071;DHT22;11200;51.488;6.668;2023-06-10T02:45:59;20.70;99.90
22071;DHT22;11200;51.488;6.668;2023-06-10T02:48:25;20.60;99.90
22071;DHT22;11200;51.488;6.668;2023-06-10T02:50:52;20.60;99.90
22071;DHT22;11200;51.488;6.668;2023-06-10T02:53:17;20.60;99.90
22071;DHT22;11200;51.488;6.668;2023-06-10T02:55:43;20.60;99.90
22071;DHT22;11200;51.488;6.668;2023-06-10T02:58:09;20.50;99.90
22071;DHT22;11200;51.488;6.668;2023-06-10T03:00:35;20.50;99.90
22071;DHT22;11200;51.488;6.668;2023-06-10T03:03:01;20.50;99.90
22071;DHT22;11200;51.488;6.668;2023-06-10T03:05:30;20.50;99.90
22071;DHT22;11200;51.488;6.668;2023-06-10T03:07:55;20.40;99.90
22071;DHT22;11200;51.488;6.668;2023-06-10T03:10:21;20.40;99.90
22071;DHT22;11200;51.488;6.668;2023-06-10T03:12:46;20.40;99.90
22071;DHT22;11200;51.488;6.668;2023-06-10T03:15:12;20.30;99.90
22071;DHT22;11200;51.488;6.668;2023-06-10T03:17:38;20.30;99.90
22071;DHT22;11200;51.488;6.668;2023-06-10T03:20:04;20.20;99.90
22071;DHT22;11200;51.488;6.668;2023-06-10T03:22:31;20.20;99.90
22071;DHT22;11200;51.488;6.668;2023-06-10T03:24:56;20.20;99.90
22071;DHT22;11200;51.488;6.668;2023-06-10T03:27:22;20.10;99.90
22071;DHT22;11200;51.488;6.668;2023-06-10T03:29:48;20.10;99.90
22071;DHT22;11200;51.488;6.668;2023-06-10T03:32:14;20.10;99.90
22071;DHT22;11200;51.488;6.668;2023-06-10T03:34:40;20.10;99.90
22071;DHT22;11200;51.488;6.668;2023-06-10T03:37:06;20.00;99.90
22071;DHT22;11200;51.488;6.668;2023-06-10T03:39:32;20.00;99.90
22071;DHT22;11200;51.488;6.668;2023-06-10T03:41:58;20.00;99.90
22071;DHT22;11200;51.488;6.668;2023-06-10T03:44:24;19.90;99.90
22071;DHT22;11200;51.488;6.668;2023-06-10T03:46:51;19.90;99.90
22071;DHT22;11200;51.488;6.668;2023-06-10T03:49:17;19.90;99.90
22071;DHT22;11200;51.488;6.668;2023-06-10T03:51:43;19.80;99.90
22071;DHT22;11200;51.488;6.668;2023-06-10T03:54:09;19.90;99.90
22071;DHT22;11200;51.488;6.668;2023-06-10T03:56:35;19.80;99.90
22071;DHT22;11200;51.488;6.668;2023-06-10T03:59:01;19.80;99.90
22071;DHT22;11200;51.488;6.668;2023-06-10T04:01:26;19.70;99.90
22071;DHT22;11200;51.488;6.668;2023-06-10T04:03:53;19.70;99.90
22071;DHT22;11200;51.488;6.668;2023-06-10T04:06:19;19.70;99.90
22071;DHT22;11200;51.488;6.668;2023-06-10T04:08:48;19.70;99.90
22071;DHT22;11200;51.488;6.668;2023-06-10T04:11:14;19.60;99.90
22071;DHT22;11200;51.488;6.668;2023-06-10T04:13:40;19.70;99.90
22071;DHT22;11200;51.488;6.668;2023-06-10T04:16:05;19.60;99.90
22071;DHT22;11200;51.488;6.668;2023-06-10T04:18:32;19.60;99.90
22071;DHT22;11200;51.488;6.668;2023-06-10T04:20:58;19.60;99.90
22071;DHT22;11200;51.488;6.668;2023-06-10T04:23:23;19.60;99.90
22071;DHT22;11200;51.488;6.668;2023-06-10T04:25:49;19.60;99.90
22071;DHT22;11200;51.488;6.668;2023-06-10T04:28:15;19.60;99.90
22071;DHT22;11200;51.488;6.668;2023-06-10T04:30:41;19.60;99.90
22071;DHT22;11200;51.488;6.668;2023-06-10T04:33:07;19.50;99.90
22071;DHT22;11200;51.488;6.668;2023-06-10T04:35:34;19.50;99.90
22071;DHT22;11200;51.488;6.668;2023-06-10T04:38:00;19.50;99.90
22071;DHT22;11200;51.488;6.668;2023-06-10T04:40:28;19.50;99.90
22071;DHT22;11200;51.488;6.668;2023-06-10T04:42:53;19.50;99.90
22071;DHT22;11200;51.488;6.668;2023-06-10T04:45:19;19.50;99.90
22071;DHT22;11200;51.488;6.668;2023-06-10T04:47:44;19.50;99.90
22071;DHT22;11200;51.488;6.668;2023-06-10T04:50:10;19.50;99.90
22071;DHT22;11200;51.488;6.668;2023-06-10T04:52:36;19.50;99.90
22071;DHT22;11200;51.488;6.668;2023-06-10T04:55:01;19.40;99.90
22071;DHT22;11200;51.488;6.668;2023-06-10T04:57:27;19.40;99.90
22071;DHT22;11200;51.488;6.668;2023-06-10T04:59:53;19.40;99.90
22071;DHT22;11200;51.488;6.668;2023-06-10T05:02:19;19.40;99.90
22071;DHT22;11200;51.488;6.668;2023-06-10T05:04:44;19.40;99.90
22071;DHT22;11200;51.488;6.668;2023-06-10T05:07:10;19.40;99.90
22071;DHT22;11200;51.488;6.668;2023-06-10T05:09:35;19.40;99.90
22071;DHT22;11200;51.488;6.668;2023-06-10T05:12:03;19.40;99.90
22071;DHT22;11200;51.488;6.668;2023-06-10T05:14:28;19.40;99.90
22071;DHT22;11200;51.488;6.668;2023-06-10T05:16:54;19.40;99.90
22071;DHT22;11200;51.488;6.668;2023-06-10T05:19:22;19.40;99.90
22071;DHT22;11200;51.488;6.668;2023-06-10T05:21:48;19.40;99.90
22071;DHT22;11200;51.488;6.668;2023-06-10T05:24:13;19.50;99.90
22071;DHT22;11200;51.488;6.668;2023-06-10T05:26:39;19.50;99.90
22071;DHT22;11200;51.488;6.668;2023-06-10T05:29:07;19.50;99.90
22071;DHT22;11200;51.488;6.668;2023-06-10T05:31:33;19.50;99.90
22071;DHT22;11200;51.488;6.668;2023-06-10T05:36:27;19.50;99.90
22071;DHT22;11200;51.488;6.668;2023-06-10T05:38:53;19.50;99.90
22071;DHT22;11200;51.488;6.668;2023-06-10T05:41:18;19.50;99.90
22071;DHT22;11200;51.488;6.668;2023-06-10T05:43:44;19.60;99.90
22071;DHT22;11200;51.488;6.668;2023-06-10T05:46:10;19.50;99.90
22071;DHT22;11200;51.488;6.668;2023-06-10T05:48:35;19.50;99.90
22071;DHT22;11200;51.488;6.668;2023-06-10T05:51:01;19.60;99.90
22071;DHT22;11200;51.488;6.668;2023-06-10T05:53:27;19.60;99.90
22071;DHT22;11200;51.488;6.668;2023-06-10T05:55:52;19.60;99.90
22071;DHT22;11200;51.488;6.668;2023-06-10T05:58:23;19.60;99.90
22071;DHT22;11200;51.488;6.668;2023-06-10T06:00:48;19.60;99.90
22071;DHT22;11200;51.488;6.668;2023-06-10T06:03:14;19.60;99.90
22071;DHT22;11200;51.488;6.668;2023-06-10T06:05:40;19.50;99.90
22071;DHT22;11200;51.488;6.668;2023-06-10T06:08:06;19.70;99.90
22071;DHT22;11200;51.488;6.668;2023-06-10T06:10:32;19.70;99.90
22071;DHT22;11200;51.488;6.668;2023-06-10T06:12:57;19.70;99.90
22071;DHT22;11200;51.488;6.668;2023-06-10T06:15:23;19.70;99.90
22071;DHT22;11200;51.488;6.668;2023-06-10T06:17:48;19.80;99.90
22071;DHT22;11200;51.488;6.668;2023-06-10T06:20:14;19.80;99.90
22071;DHT22;11200;51.488;6.668;2023-06-10T06:22:40;19.80;99.90
22071;DHT22;11200;51.488;6.668;2023-06-10T06:25:06;19.80;99.90
22071;DHT22;11200;51.488;6.668;2023-06-10T06:27:31;19.80;99.90
22071;DHT22;11200;51.488;6.668;2023-06-10T06:29:57;19.80;99.90
22071;DHT22;11200;51.488;6.668;2023-06-10T06:32:23;19.90;99.90
22071;DHT22;11200;51.488;6.668;2023-06-10T06:34:50;19.90;99.90
22071;DHT22;11200;51.488;6.668;2023-06-10T06:37:23;19.90;99.90
22071;DHT22;11200;51.488;6.668;2023-06-10T06:39:52;20.00;99.90
22071;DHT22;11200;51.488;6.668;2023-06-10T06:42:18;20.00;99.90
22071;DHT22;11200;51.488;6.668;2023-06-10T06:44:44;20.00;99.90
22071;DHT22;11200;51.488;6.668;2023-06-10T06:47:10;20.10;99.90
22071;DHT22;11200;51.488;6.668;2023-06-10T06:49:36;20.10;99.90
22071;DHT22;11200;51.488;6.668;2023-06-10T06:52:02;20.20;99.90
22071;DHT22;11200;51.488;6.668;2023-06-10T06:54:27;20.20;99.90
22071;DHT22;11200;51.488;6.668;2023-06-10T06:56:53;20.30;99.90
22071;DHT22;11200;51.488;6.668;2023-06-10T06:59:19;20.30;99.90
22071;DHT22;11200;51.488;6.668;2023-06-10T07:01:45;20.40;99.90
22071;DHT22;11200;51.488;6.668;2023-06-10T07:04:15;20.40;99.90
22071;DHT22;11200;51.488;6.668;2023-06-10T07:06:43;20.40;99.90
22071;DHT22;11200;51.488;6.668;2023-06-10T07:09:10;20.50;99.90
22071;DHT22;11200;51.488;6.668;2023-06-10T07:11:36;20.60;99.90
22071;DHT22;11200;51.488;6.668;2023-06-10T07:14:02;20.70;99.90
22071;DHT22;11200;51.488;6.668;2023-06-10T07:16:27;20.80;99.90
22071;DHT22;11200;51.488;6.668;2023-06-10T07:18:53;20.80;99.90
22071;DHT22;11200;51.488;6.668;2023-06-10T07:21:19;21.00;99.90
22071;DHT22;11200;51.488;6.668;2023-06-10T07:23:45;21.00;99.90
22071;DHT22;11200;51.488;6.668;2023-06-10T07:26:11;21.20;99.90
22071;DHT22;11200;51.488;6.668;2023-06-10T07:28:39;21.30;99.90
22071;DHT22;11200;51.488;6.668;2023-06-10T07:31:05;21.40;99.90
22071;DHT22;11200;51.488;6.668;2023-06-10T07:33:31;21.50;99.90
22071;DHT22;11200;51.488;6.668;2023-06-10T07:35:56;21.60;99.90
22071;DHT22;11200;51.488;6.668;2023-06-10T07:38:22;21.80;99.90
22071;DHT22;11200;51.488;6.668;2023-06-10T07:40:48;21.90;99.90
22071;DHT22;11200;51.488;6.668;2023-06-10T07:43:13;22.00;99.90
22071;DHT22;11200;51.488;6.668;2023-06-10T07:45:42;22.20;99.90
22071;DHT22;11200;51.488;6.668;2023-06-10T07:48:08;22.40;99.90
22071;DHT22;11200;51.488;6.668;2023-06-10T07:50:34;22.50;99.90
22071;DHT22;11200;51.488;6.668;2023-06-10T07:53:00;22.60;99.90
22071;DHT22;11200;51.488;6.668;2023-06-10T07:55:25;22.80;99.90
22071;DHT22;11200;51.488;6.668;2023-06-10T07:57:54;23.00;99.90
22071;DHT22;11200;51.488;6.668;2023-06-10T08:00:20;23.10;99.90
22071;DHT22;11200;51.488;6.668;2023-06-10T08:02:46;23.30;99.90
22071;DHT22;11200;51.488;6.668;2023-06-10T08:05:12;23.40;99.90
22071;DHT22;11200;51.488;6.668;2023-06-10T08:07:41;23.50;99.90
22071;DHT22;11200;51.488;6.668;2023-06-10T08:10:07;23.70;99.90
22071;DHT22;11200;51.488;6.668;2023-06-10T08:12:33;23.90;99.90
22071;DHT22;11200;51.488;6.668;2023-06-10T08:14:59;24.10;99.90
22071;DHT22;11200;51.488;6.668;2023-06-10T08:17:25;24.20;99.90
22071;DHT22;11200;51.488;6.668;2023-06-10T08:19:51;24.40;99.90
22071;DHT22;11200;51.488;6.668;2023-06-10T08:22:16;24.50;99.90
22071;DHT22;11200;51.488;6.668;2023-06-10T08:24:42;24.70;99.90
22071;DHT22;11200;51.488;6.668;2023-06-10T08:27:08;24.80;99.90
22071;DHT22;11200;51.488;6.668;2023-06-10T08:29:33;24.90;99.90
22071;DHT22;11200;51.488;6.668;2023-06-10T08:31:59;25.00;99.90
22071;DHT22;11200;51.488;6.668;2023-06-10T08:34:25;25.20;99.90
22071;DHT22;11200;51.488;6.668;2023-06-10T08:36:51;25.30;99.90
22071;DHT22;11200;51.488;6.668;2023-06-10T08:39:19;25.50;99.90
22071;DHT22;11200;51.488;6.668;2023-06-10T08:42:00;25.60;99.90
22071;DHT22;11200;51.488;6.668;2023-06-10T08:44:30;25.80;99.90
22071;DHT22;11200;51.488;6.668;2023-06-10T08:46:59;25.90;99.90
22071;DHT22;11200;51.488;6.668;2023-06-10T08:49:26;26.10;99.90
22071;DHT22;11200;51.488;6.668;2023-06-10T08:51:58;26.30;99.90
22071;DHT22;11200;51.488;6.668;2023-06-10T08:54:33;26.40;99.90
22071;DHT22;11200;51.488;6.668;2023-06-10T08:57:04;26.60;99.90
22071;DHT22;11200;51.488;6.668;2023-06-10T08:59:31;26.80;99.90
22071;DHT22;11200;51.488;6.668;2023-06-10T09:01:57;26.90;99.90
22071;DHT22;11200;51.488;6.668;2023-06-10T09:04:24;27.10;99.90
22071;DHT22;11200;51.488;6.668;2023-06-10T09:06:50;27.20;99.90
22071;DHT22;11200;51.488;6.668;2023-06-10T09:09:16;27.40;99.90
22071;DHT22;11200;51.488;6.668;2023-06-10T09:11:43;27.60;99.90
22071;DHT22;11200;51.488;6.668;2023-06-10T09:14:08;27.70;99.90
22071;DHT22;11200;51.488;6.668;2023-06-10T09:16:34;27.80;99.90
22071;DHT22;11200;51.488;6.668;2023-06-10T09:19:01;28.00;99.90
22071;DHT22;11200;51.488;6.668;2023-06-10T09:21:33;28.10;99.90
22071;DHT22;11200;51.488;6.668;2023-06-10T09:23:59;28.20;99.90
22071;DHT22;11200;51.488;6.668;2023-06-10T09:26:29;28.40;99.90
22071;DHT22;11200;51.488;6.668;2023-06-10T09:29:13;28.50;99.90
22071;DHT22;11200;51.488;6.668;2023-06-10T09:31:40;28.70;99.90
22071;DHT22;11200;51.488;6.668;2023-06-10T09:34:10;28.80;99.90
22071;DHT22;11200;51.488;6.668;2023-06-10T09:36:37;28.90;99.90
22071;DHT22;11200;51.488;6.668;2023-06-10T09:39:04;29.00;99.90
22071;DHT22;11200;51.488;6.668;2023-06-10T09:41:40;29.20;99.90
22071;DHT22;11200;51.488;6.668;2023-06-10T09:44:13;29.30;99.90
22071;DHT22;11200;51.488;6.668;2023-06-10T09:46:46;29.40;99.90
22071;DHT22;11200;51.488;6.668;2023-06-10T09:49:12;29.50;99.90
22071;DHT22;11200;51.488;6.668;2023-06-10T09:51:52;29.70;99.90
22071;DHT22;11200;51.488;6.668;2023-06-10T09:54:19;29.80;99.90
22071;DHT22;11200;51.488;6.668;2023-06-10T09:56:51;29.90;99.90
22071;DHT22;11200;51.488;6.668;2023-06-10T09:59:28;30.10;99.90
22071;DHT22;11200;51.488;6.668;2023-06-10T10:01:55;30.20;99.90
22071;DHT22;11200;51.488;6.668;2023-06-10T10:04:24;30.40;99.90
22071;DHT22;11200;51.488;6.668;2023-06-10T10:06:50;30.50;99.90
22071;DHT22;11200;51.488;6.668;2023-06-10T10:09:16;30.60;99.90
22071;DHT22;11200;51.488;6.668;2023-06-10T10:11:43;30.70;99.90
22071;DHT22;11200;51.488;6.668;2023-06-10T10:14:09;30.80;99.90
22071;DHT22;11200;51.488;6.668;2023-06-10T10:16:36;31.00;99.90
22071;DHT22;11200;51.488;6.668;2023-06-10T10:19:15;31.10;99.90
22071;DHT22;11200;51.488;6.668;2023-06-10T10:21:55;31.20;99.90
22071;DHT22;11200;51.488;6.668;2023-06-10T10:24:26;31.30;99.90
22071;DHT22;11200;51.488;6.668;2023-06-10T10:26:59;31.40;99.90
22071;DHT22;11200;51.488;6.668;2023-06-10T10:29:39;31.50;99.90
22071;DHT22;11200;51.488;6.668;2023-06-10T10:32:07;31.60;99.90
22071;DHT22;11200;51.488;6.668;2023-06-10T10:35:08;31.60;99.90
22071;DHT22;11200;51.488;6.668;2023-06-10T10:37:35;31.70;99.90
22071;DHT22;11200;51.488;6.668;2023-06-10T10:40:02;31.80;99.90
22071;DHT22;11200;51.488;6.668;2023-06-10T10:42:29;31.80;99.90
22071;DHT22;11200;51.488;6.668;2023-06-10T10:44:56;32.00;99.90
22071;DHT22;11200;51.488;6.668;2023-06-10T10:47:22;32.00;99.90
22071;DHT22;11200;51.488;6.668;2023-06-10T10:49:51;32.20;99.90
22071;DHT22;11200;51.488;6.668;2023-06-10T10:52:18;32.30;99.90
22071;DHT22;11200;51.488;6.668;2023-06-10T10:54:45;32.30;99.90
22071;DHT22;11200;51.488;6.668;2023-06-10T10:57:15;32.30;99.90
22071;DHT22;11200;51.488;6.668;2023-06-10T11:00:02;32.30;96.50
22071;DHT22;11200;51.488;6.668;2023-06-10T11:02:37;32.40;99.90
22071;DHT22;11200;51.488;6.668;2023-06-10T11:05:06;32.40;99.90
22071;DHT22;11200;51.488;6.668;2023-06-10T11:07:34;32.50;99.90
22071;DHT22;11200;51.488;6.668;2023-06-10T11:10:10;32.50;93.60
22071;DHT22;11200;51.488;6.668;2023-06-10T11:15:11;32.60;53.40
22071;DHT22;11200;51.488;6.668;2023-06-10T11:17:37;32.70;86.80
22071;DHT22;11200;51.488;6.668;2023-06-10T11:20:03;32.70;83.50
22071;DHT22;11200;51.488;6.668;2023-06-10T11:22:32;32.80;87.10
22071;DHT22;11200;51.488;6.668;2023-06-10T11:24:57;32.80;66.10
22071;DHT22;11200;51.488;6.668;2023-06-10T11:27:24;32.80;71.10
22071;DHT22;11200;51.488;6.668;2023-06-10T11:32:32;32.90;85.20
22071;DHT22;11200;51.488;6.668;2023-06-10T11:34:58;32.90;45.20
22071;DHT22;11200;51.488;6.668;2023-06-10T11:37:24;33.00;72.50
22071;DHT22;11200;51.488;6.668;2023-06-10T11:42:25;33.10;72.60
22071;DHT22;11200;51.488;6.668;2023-06-10T11:44:52;33.10;60.00
22071;DHT22;11200;51.488;6.668;2023-06-10T11:47:20;33.10;45.80
22071;DHT22;11200;51.488;6.668;2023-06-10T11:49:49;33.20;54.20
22071;DHT22;11200;51.488;6.668;2023-06-10T11:52:30;33.20;4.30
22071;DHT22;11200;51.488;6.668;2023-06-10T11:54:57;33.20;18.50
22071;DHT22;11200;51.488;6.668;2023-06-10T11:57:23;33.30;26.30
22071;DHT22;11200;51.488;6.668;2023-06-10T11:59:48;33.20;37.60
22071;DHT22;11200;51.488;6.668;2023-06-10T12:02:15;33.30;38.50
22071;DHT22;11200;51.488;6.668;2023-06-10T12:04:41;33.40;52.20
22071;DHT22;11200;51.488;6.668;2023-06-10T12:07:07;33.40;54.10
22071;DHT22;11200;51.488;6.668;2023-06-10T12:09:34;33.40;57.30
22071;DHT22;11200;51.488;6.668;2023-06-10T12:12:02;33.40;31.10
22071;DHT22;11200;51.488;6.668;2023-06-10T12:14:57;33.50;62.90
22071;DHT22;11200;51.488;6.668;2023-06-10T12:19:55;33.40;6.50
22071;DHT22;11200;51.488;6.668;2023-06-10T12:22:22;33.50;25.20
22071;DHT22;11200;51.488;6.668;2023-06-10T12:24:59;33.50;29.10
22071;DHT22;11200;51.488;6.668;2023-06-10T12:27:25;33.50;27.10
22071;DHT22;11200;51.488;6.668;2023-06-10T12:29:51;33.50;28.60
22071;DHT22;11200;51.488;6.668;2023-06-10T12:32:19;33.50;18.50
22071;DHT22;11200;51.488;6.668;2023-06-10T12:34:48;33.60;1.00
22071;DHT22;11200;51.488;6.668;2023-06-10T12:37:13;33.60;5.70
22071;DHT22;11200;51.488;6.668;2023-06-10T12:39:40;33.60;16.20
22071;DHT22;11200;51.488;6.668;2023-06-10T12:42:08;33.60;34.10
22071;DHT22;11200;51.488;6.668;2023-06-10T12:44:38;33.60;17.10
22071;DHT22;11200;51.488;6.668;2023-06-10T12:47:09;33.60;1.00
22071;DHT22;11200;51.488;6.668;2023-06-10T12:49:36;33.50;26.00
22071;DHT22;11200;51.488;6.668;2023-06-10T12:52:02;33.60;1.00
22071;DHT22;11200;51.488;6.668;2023-06-10T12:54:28;33.60;6.60
22071;DHT22;11200;51.488;6.668;2023-06-10T12:56:53;33.60;24.00
22071;DHT22;11200;51.488;6.668;2023-06-10T12:59:19;33.60;2.90
22071;DHT22;11200;51.488;6.668;2023-06-10T13:01:50;33.50;12.30
22071;DHT22;11200;51.488;6.668;2023-06-10T13:04:17;33.50;7.90
22071;DHT22;11200;51.488;6.668;2023-06-10T13:06:43;33.50;1.00
22071;DHT22;11200;51.488;6.668;2023-06-10T13:09:09;33.50;1.00
22071;DHT22;11200;51.488;6.668;2023-06-10T13:11:36;33.40;1.00
22071;DHT22;11200;51.488;6.668;2023-06-10T13:14:02;33.50;1.00
22071;DHT22;11200;51.488;6.668;2023-06-10T13:16:30;33.40;1.00
22071;DHT22;11200;51.488;6.668;2023-06-10T13:18:55;33.40;9.10
22071;DHT22;11200;51.488;6.668;2023-06-10T13:21:21;33.40;1.00
22071;DHT22;11200;51.488;6.668;2023-06-10T13:23:46;33.40;1.00
22071;DHT22;11200;51.488;6.668;2023-06-10T13:26:16;33.40;12.80
22071;DHT22;11200;51.488;6.668;2023-06-10T13:28:43;33.50;27.50
22071;DHT22;11200;51.488;6.668;2023-06-10T13:31:09;33.40;14.80
22071;DHT22;11200;51.488;6.668;2023-06-10T13:33:34;33.50;1.00
22071;DHT22;11200;51.488;6.668;2023-06-10T13:36:00;33.40;24.80
22071;DHT22;11200;51.488;6.668;2023-06-10T13:38:25;33.40;13.00
22071;DHT22;11200;51.488;6.668;2023-06-10T13:40:51;33.30;10.50
22071;DHT22;11200;51.488;6.668;2023-06-10T13:43:16;33.30;10.50
22071;DHT22;11200;51.488;6.668;2023-06-10T13:45:42;33.30;1.00
22071;DHT22;11200;51.488;6.668;2023-06-10T13:48:08;33.20;1.00
22071;DHT22;11200;51.488;6.668;2023-06-10T13:50:33;33.20;7.70
22071;DHT22;11200;51.488;6.668;2023-06-10T13:52:59;33.10;1.00
22071;DHT22;11200;51.488;6.668;2023-06-10T13:55:25;33.10;15.50
22071;DHT22;11200;51.488;6.668;2023-06-10T13:57:51;33.00;1.00
22071;DHT22;11200;51.488;6.668;2023-06-10T14:00:17;33.00;23.80
22071;DHT22;11200;51.488;6.668;2023-06-10T14:02:43;33.00;16.30
22071;DHT22;11200;51.488;6.668;2023-06-10T14:05:08;33.00;10.00
22071;DHT22;11200;51.488;6.668;2023-06-10T14:07:34;33.00;3.30
22071;DHT22;11200;51.488;6.668;2023-06-10T14:10:00;33.00;27.50
22071;DHT22;11200;51.488;6.668;2023-06-10T14:12:26;33.00;12.00
22071;DHT22;11200;51.488;6.668;2023-06-10T14:14:51;33.00;7.80
22071;DHT22;11200;51.488;6.668;2023-06-10T14:17:17;33.00;32.00
22071;DHT22;11200;51.488;6.668;2023-06-10T14:19:42;33.00;1.00
22071;DHT22;11200;51.488;6.668;2023-06-10T14:22:08;33.00;10.80
22071;DHT22;11200;51.488;6.668;2023-06-10T14:24:34;33.00;1.00
22071;DHT22;11200;51.488;6.668;2023-06-10T14:27:01;32.80;1.00
22071;DHT22;11200;51.488;6.668;2023-06-10T14:29:27;32.80;1.00
22071;DHT22;11200;51.488;6.668;2023-06-10T14:31:54;32.70;1.00
22071;DHT22;11200;51.488;6.668;2023-06-10T14:34:20;32.60;1.00
22071;DHT22;11200;51.488;6.668;2023-06-10T14:36:46;32.60;1.00
22071;DHT22;11200;51.488;6.668;2023-06-10T14:39:11;32.60;1.00
22071;DHT22;11200;51.488;6.668;2023-06-10T14:41:37;32.50;1.00
22071;DHT22;11200;51.488;6.668;2023-06-10T14:44:02;32.40;1.00
22071;DHT22;11200;51.488;6.668;2023-06-10T14:46:31;32.40;8.30
22071;DHT22;11200;51.488;6.668;2023-06-10T14:48:57;32.30;1.00
22071;DHT22;11200;51.488;6.668;2023-06-10T14:51:24;32.30;11.40
22071;DHT22;11200;51.488;6.668;2023-06-10T14:53:50;32.20;21.60
22071;DHT22;11200;51.488;6.668;2023-06-10T14:56:16;32.10;2.00
22071;DHT22;11200;51.488;6.668;2023-06-10T14:58:41;32.10;39.90
22071;DHT22;11200;51.488;6.668;2023-06-10T15:01:07;32.00;31.50
22071;DHT22;11200;51.488;6.668;2023-06-10T15:03:32;31.90;24.40
22071;DHT22;11200;51.488;6.668;2023-06-10T15:05:58;31.90;23.50
22071;DHT22;11200;51.488;6.668;2023-06-10T15:08:26;31.70;26.80
22071;DHT22;11200;51.488;6.668;2023-06-10T15:10:53;31.70;40.00
22071;DHT22;11200;51.488;6.668;2023-06-10T15:13:20;31.60;21.50
22071;DHT22;11200;51.488;6.668;2023-06-10T15:15:45;31.50;23.10
22071;DHT22;11200;51.488;6.668;2023-06-10T15:18:11;31.50;31.20
22071;DHT22;11200;51.488;6.668;2023-06-10T15:20:37;31.40;43.60
22071;DHT22;11200;51.488;6.668;2023-06-10T15:23:02;31.30;37.20
22071;DHT22;11200;51.488;6.668;2023-06-10T15:25:29;31.30;56.20
22071;DHT22;11200;51.488;6.668;2023-06-10T15:27:58;31.20;55.80
22071;DHT22;11200;51.488;6.668;2023-06-10T15:30:23;31.10;46.20
22071;DHT22;11200;51.488;6.668;2023-06-10T15:32:49;31.00;60.80
22071;DHT22;11200;51.488;6.668;2023-06-10T15:35:15;31.00;48.20
22071;DHT22;11200;51.488;6.668;2023-06-10T15:37:40;31.00;48.40
22071;DHT22;11200;51.488;6.668;2023-06-10T15:40:06;30.90;36.30
22071;DHT22;11200;51.488;6.668;2023-06-10T15:42:32;30.90;64.60
22071;DHT22;11200;51.488;6.668;2023-06-10T15:44:58;30.90;77.60